createdAt,value
2022-12-01T00:01:06.918Z,52.53
2022-12-01T00:03:34.844Z,52.50
2022-12-01T00:06:06.548Z,52.84
2022-12-01T00:08:34.102Z,53.13
2022-12-01T00:11:08.950Z,53.00
2022-12-01T00:13:35.732Z,53.11
2022-12-01T00:16:12.283Z,53.26
2022-12-01T00:18:39.231Z,53.55
2022-12-01T00:21:06.000Z,53.82
2022-12-01T00:23:32.549Z,53.71
2022-12-01T00:26:05.628Z,53.63
2022-12-01T00:28:32.201Z,54.03
2022-12-01T00:31:00.097Z,54.08
2022-12-01T00:33:26.628Z,54.03
2022-12-01T00:36:00.511Z,54.52
2022-12-01T00:38:27.565Z,54.54
2022-12-01T00:40:54.240Z,54.58
2022-12-01T00:43:20.838Z,54.54
2022-12-01T00:45:47.555Z,54.58
2022-12-01T00:48:14.123Z,54.76
2022-12-01T00:50:40.996Z,54.45
2022-12-01T00:53:07.544Z,54.37
2022-12-01T00:55:34.323Z,54.90
2022-12-01T00:58:00.813Z,54.85
2022-12-01T01:00:27.549Z,54.93
2022-12-01T01:02:55.217Z,54.83
2022-12-01T01:05:21.827Z,54.96
2022-12-01T01:07:48.344Z,55.01
2022-12-01T01:10:14.999Z,54.96
2022-12-01T01:12:41.550Z,55.28
2022-12-01T01:15:08.347Z,55.41
2022-12-01T01:17:34.923Z,55.21
2022-12-01T01:20:01.553Z,55.41
2022-12-01T01:22:28.089Z,55.10
2022-12-01T01:24:54.580Z,55.10
2022-12-01T01:27:21.157Z,55.18
2022-12-01T01:29:47.996Z,55.27
2022-12-01T01:32:14.776Z,55.53
2022-12-01T01:34:41.242Z,55.55
2022-12-01T01:37:07.843Z,55.29
2022-12-01T01:39:34.413Z,55.51
2022-12-01T01:42:01.971Z,55.22
2022-12-01T01:45:04.101Z,55.26
2022-12-01T01:47:36.668Z,55.28
2022-12-01T01:50:13.628Z,55.42
2022-12-01T01:52:46.430Z,55.46
2022-12-01T01:55:13.967Z,55.55
2022-12-01T01:57:40.671Z,55.53
2022-12-01T02:00:17.003Z,55.64
2022-12-01T02:02:46.351Z,55.18
2022-12-01T02:05:18.220Z,55.56
2022-12-01T02:07:45.464Z,55.47
2022-12-01T02:10:13.669Z,55.70
2022-12-01T02:12:59.040Z,55.49
2022-12-01T02:15:51.857Z,55.57
2022-12-01T02:18:27.922Z,55.62
2022-12-01T02:21:13.249Z,55.39
2022-12-01T02:23:48.133Z,55.44
2022-12-01T02:26:33.344Z,55.43
2022-12-01T02:29:15.281Z,55.57
2022-12-01T02:31:49.573Z,55.40
2022-12-01T02:34:41.008Z,55.56
2022-12-01T02:37:23.861Z,55.13
2022-12-01T02:40:08.081Z,55.41
2022-12-01T02:42:59.673Z,55.38
2022-12-01T02:45:33.498Z,55.70
2022-12-01T02:48:02.049Z,55.66
2022-12-01T02:50:29.867Z,55.57
2022-12-01T02:52:57.020Z,55.65
2022-12-01T02:55:23.610Z,55.08
2022-12-01T02:57:50.310Z,55.51
2022-12-01T03:00:17.687Z,55.56
2022-12-01T03:03:20.824Z,55.32
2022-12-01T03:06:10.275Z,55.25
2022-12-01T03:08:59.233Z,55.32
2022-12-01T03:11:38.391Z,55.20
2022-12-01T03:14:21.910Z,55.25
2022-12-01T03:16:53.360Z,55.51
2022-12-01T03:19:25.767Z,55.22
2022-12-01T03:22:04.386Z,55.16
2022-12-01T03:24:32.997Z,55.35
2022-12-01T03:27:00.473Z,55.43
2022-12-01T03:29:32.005Z,55.35
2022-12-01T03:32:03.871Z,55.50
2022-12-01T03:34:41.271Z,55.43
2022-12-01T03:37:12.617Z,55.52
2022-12-01T03:39:40.141Z,55.37
2022-12-01T03:42:20.808Z,55.28
2022-12-01T03:45:10.221Z,55.62
2022-12-01T03:47:39.444Z,55.23
2022-12-01T03:50:07.600Z,55.43
2022-12-01T03:52:43.055Z,55.33
2022-12-01T03:55:33.609Z,55.39
2022-12-01T03:58:11.118Z,55.63
2022-12-01T04:00:38.050Z,55.23
2022-12-01T04:03:05.281Z,55.28
2022-12-01T04:05:33.787Z,55.25
2022-12-01T04:08:00.705Z,55.40
2022-12-01T04:10:27.446Z,55.40
2022-12-01T04:12:59.144Z,55.32
2022-12-01T04:15:26.287Z,55.34
2022-12-01T04:17:52.877Z,55.35
2022-12-01T04:20:19.985Z,55.34
2022-12-01T04:22:46.544Z,55.25
2022-12-01T04:25:13.148Z,55.53
2022-12-01T04:27:39.878Z,55.26
2022-12-01T04:30:07.472Z,55.35
2022-12-01T04:32:41.156Z,55.42
2022-12-01T04:35:10.008Z,54.99
2022-12-01T04:37:36.718Z,55.10
2022-12-01T04:40:04.054Z,55.12
2022-12-01T04:42:30.573Z,55.56
2022-12-01T04:44:57.234Z,55.52
2022-12-01T04:47:23.825Z,55.31
2022-12-01T04:49:50.639Z,55.45
2022-12-01T04:52:17.387Z,55.41
2022-12-01T04:54:43.883Z,55.26
2022-12-01T04:57:10.576Z,55.27
2022-12-01T04:59:37.162Z,55.04
2022-12-01T05:02:04.252Z,55.24
2022-12-01T05:04:32.502Z,55.24
2022-12-01T05:06:59.077Z,55.13
2022-12-01T05:09:25.593Z,55.19
2022-12-01T05:11:52.212Z,55.09
2022-12-01T05:14:18.746Z,55.31
2022-12-01T05:16:45.383Z,55.20
2022-12-01T05:19:30.382Z,55.49
2022-12-01T05:21:56.890Z,54.94
2022-12-01T05:24:23.456Z,55.13
2022-12-01T05:26:50.013Z,54.86
2022-12-01T05:29:16.637Z,54.94
2022-12-01T05:31:43.179Z,54.97
2022-12-01T05:34:09.833Z,54.83
2022-12-01T05:36:36.612Z,54.85
2022-12-01T05:39:04.037Z,54.98
2022-12-01T05:41:30.552Z,54.59
2022-12-01T05:43:57.077Z,54.56
2022-12-01T05:46:23.709Z,54.98
2022-12-01T05:48:50.358Z,54.54
2022-12-01T05:51:17.298Z,54.63
2022-12-01T05:53:44.084Z,54.77
2022-12-01T05:56:10.760Z,54.83
2022-12-01T05:58:37.616Z,54.53
2022-12-01T06:01:04.276Z,54.57
2022-12-01T06:03:30.834Z,54.62
2022-12-01T06:05:57.396Z,54.66
2022-12-01T06:08:23.912Z,54.36
2022-12-01T06:10:50.441Z,54.49
2022-12-01T06:13:17.025Z,54.51
2022-12-01T06:15:43.651Z,54.44
2022-12-01T06:18:10.268Z,54.32
2022-12-01T06:20:36.848Z,54.35
2022-12-01T06:23:03.631Z,54.21
2022-12-01T06:25:30.231Z,54.27
2022-12-01T06:27:58.206Z,54.26
2022-12-01T06:30:24.981Z,54.13
2022-12-01T06:32:51.643Z,53.97
2022-12-01T06:35:18.171Z,54.04
2022-12-01T06:37:44.780Z,53.81
2022-12-01T06:40:12.130Z,53.87
2022-12-01T06:42:38.806Z,53.98
2022-12-01T06:45:05.800Z,53.73
2022-12-01T06:47:32.457Z,54.03
2022-12-01T06:49:59.091Z,53.88
2022-12-01T06:52:25.825Z,53.78
2022-12-01T06:54:52.316Z,53.90
2022-12-01T06:57:19.217Z,53.55
2022-12-01T06:59:46.127Z,53.75
2022-12-01T07:02:13.496Z,53.47
2022-12-01T07:04:40.053Z,53.67
2022-12-01T07:07:06.628Z,53.47
2022-12-01T07:09:33.729Z,53.64
2022-12-01T07:12:00.259Z,53.47
2022-12-01T07:14:27.188Z,53.67
2022-12-01T07:16:53.945Z,53.47
2022-12-01T07:19:20.571Z,53.32
2022-12-01T07:21:47.310Z,53.62
2022-12-01T07:24:14.000Z,53.83
2022-12-01T07:26:41.256Z,53.66
2022-12-01T07:29:09.416Z,53.51
2022-12-01T07:31:37.117Z,53.38
2022-12-01T07:34:04.450Z,53.38
2022-12-01T07:36:31.150Z,53.49
2022-12-01T07:38:57.745Z,53.12
2022-12-01T07:41:24.420Z,53.22
2022-12-01T07:43:51.089Z,53.16
2022-12-01T07:46:24.210Z,53.15
2022-12-01T07:48:51.669Z,53.28
2022-12-01T07:51:18.840Z,53.12
2022-12-01T07:53:46.648Z,52.95
2022-12-01T07:56:13.727Z,53.05
2022-12-01T07:58:40.494Z,53.04
2022-12-01T08:01:19.135Z,53.08
2022-12-01T08:03:45.807Z,52.95
2022-12-01T08:06:12.632Z,53.09
2022-12-01T08:08:40.821Z,52.85
2022-12-01T08:11:17.988Z,53.03
2022-12-01T08:13:44.880Z,53.01
2022-12-01T08:16:13.719Z,52.99
2022-12-01T08:18:41.370Z,52.83
2022-12-01T08:21:10.036Z,52.95
2022-12-01T08:23:36.540Z,53.14
2022-12-01T08:26:05.044Z,53.08
2022-12-01T08:28:32.129Z,52.94
2022-12-01T08:30:58.812Z,52.98
2022-12-01T08:33:25.385Z,53.08
2022-12-01T08:35:52.047Z,53.08
2022-12-01T08:38:18.613Z,53.02
2022-12-01T08:40:45.200Z,53.25
2022-12-01T08:43:23.053Z,53.41
2022-12-01T08:46:00.468Z,53.27
2022-12-01T08:48:30.031Z,53.27
2022-12-01T08:51:05.708Z,53.32
2022-12-01T08:53:32.869Z,53.42
2022-12-01T08:56:01.545Z,53.27
2022-12-01T08:58:28.533Z,53.36
2022-12-01T09:01:01.629Z,53.42
2022-12-01T09:03:28.281Z,53.37
2022-12-01T09:05:54.800Z,53.80
2022-12-01T09:08:34.036Z,53.86
2022-12-01T09:11:03.370Z,54.14
2022-12-01T09:13:31.045Z,54.14
2022-12-01T09:16:06.460Z,54.86
2022-12-01T09:18:33.626Z,55.06
2022-12-01T09:21:00.213Z,55.56
2022-12-01T09:23:27.132Z,55.50
2022-12-01T09:25:53.759Z,55.49
2022-12-01T09:28:20.420Z,55.55
2022-12-01T09:30:47.188Z,55.63
2022-12-01T09:33:14.017Z,55.67
2022-12-01T09:35:40.512Z,55.77
2022-12-01T09:38:07.123Z,55.71
2022-12-01T09:40:39.134Z,55.97
2022-12-01T09:43:14.899Z,56.12
2022-12-01T09:45:47.450Z,56.05
2022-12-01T09:48:29.136Z,56.16
2022-12-01T09:50:55.899Z,56.16
2022-12-01T09:53:24.755Z,55.83
2022-12-01T09:55:51.539Z,55.84
2022-12-01T09:58:20.781Z,55.97
2022-12-01T10:00:49.484Z,55.95
2022-12-01T10:03:35.734Z,56.07
2022-12-01T10:06:28.514Z,56.14
2022-12-01T10:09:10.745Z,56.02
2022-12-01T10:11:40.693Z,55.92
2022-12-01T10:14:19.294Z,55.93
2022-12-01T10:16:58.729Z,56.12
2022-12-01T10:19:29.617Z,55.68
2022-12-01T10:22:05.327Z,55.78
2022-12-01T10:24:47.996Z,55.62
2022-12-01T10:27:30.440Z,55.62
2022-12-01T10:29:56.924Z,55.89
2022-12-01T10:32:30.622Z,55.82
2022-12-01T10:34:57.524Z,55.79
2022-12-01T10:37:26.426Z,55.74
2022-12-01T10:39:55.116Z,55.83
2022-12-01T10:42:41.605Z,55.81
2022-12-01T10:45:20.351Z,55.87
2022-12-01T10:48:07.835Z,55.77
2022-12-01T10:50:35.769Z,55.93
2022-12-01T10:53:03.236Z,55.84
2022-12-01T10:55:33.667Z,55.84
2022-12-01T10:58:07.770Z,55.87
2022-12-01T11:03:28.642Z,55.91
2022-12-01T11:05:58.445Z,56.01
2022-12-01T11:08:41.551Z,56.22
2022-12-01T11:11:39.863Z,56.27
2022-12-01T11:14:17.906Z,56.21
2022-12-01T11:16:46.913Z,56.07
2022-12-01T11:19:31.355Z,56.12
2022-12-01T11:22:05.293Z,56.05
2022-12-01T11:24:55.184Z,56.31
2022-12-01T11:27:27.778Z,56.21
2022-12-01T11:30:00.461Z,56.21
2022-12-01T11:32:32.895Z,56.41
2022-12-01T11:35:00.337Z,56.17
2022-12-01T11:37:36.162Z,56.32
2022-12-01T11:40:08.753Z,56.26
2022-12-01T11:42:36.976Z,56.48
2022-12-01T11:45:19.076Z,56.48
2022-12-01T11:47:58.979Z,56.37
2022-12-01T11:50:27.795Z,56.71
2022-12-01T11:52:54.336Z,56.69
2022-12-01T11:55:23.712Z,56.67
2022-12-01T11:57:53.365Z,56.58
2022-12-01T12:00:22.513Z,56.72
2022-12-01T12:03:08.007Z,56.54
2022-12-01T12:05:52.834Z,56.62
2022-12-01T12:08:57.354Z,56.81
2022-12-01T12:11:35.829Z,56.89
2022-12-01T12:14:17.597Z,56.82
2022-12-01T12:17:14.298Z,56.71
2022-12-01T12:20:06.829Z,56.53
2022-12-01T12:23:07.838Z,56.75
2022-12-01T12:25:49.570Z,56.82
2022-12-01T12:28:15.993Z,56.55
2022-12-01T12:31:01.386Z,57.00
2022-12-01T12:33:49.217Z,56.96
2022-12-01T12:36:34.384Z,56.71
2022-12-01T12:39:03.383Z,56.29
2022-12-01T12:41:36.975Z,56.34
2022-12-01T12:44:21.699Z,56.20
2022-12-01T12:46:50.982Z,56.33
2022-12-01T12:49:35.513Z,56.30
2022-12-01T12:52:08.946Z,56.00
2022-12-01T12:54:43.628Z,56.62
2022-12-01T12:57:27.765Z,56.35
2022-12-01T12:59:59.964Z,56.88
2022-12-01T13:02:31.428Z,57.44
2022-12-01T13:05:20.789Z,57.72
2022-12-01T13:08:14.184Z,58.03
2022-12-01T13:10:46.731Z,58.08
2022-12-01T13:13:32.694Z,57.89
2022-12-01T13:16:01.113Z,58.11
2022-12-01T13:18:29.104Z,58.16
2022-12-01T13:20:56.492Z,58.05
2022-12-01T13:23:24.235Z,58.05
2022-12-01T13:25:54.058Z,58.06
2022-12-01T13:28:24.835Z,57.99
2022-12-01T13:31:04.563Z,57.82
2022-12-01T13:33:32.224Z,57.90
2022-12-01T13:36:29.867Z,57.64
2022-12-01T13:38:58.493Z,57.70
2022-12-01T13:41:29.781Z,57.66
2022-12-01T13:43:58.382Z,57.68
2022-12-01T13:46:44.890Z,57.53
2022-12-01T13:49:33.830Z,57.57
2022-12-01T13:52:19.126Z,57.57
2022-12-01T13:55:07.591Z,57.42
2022-12-01T13:57:44.193Z,57.35
2022-12-01T14:00:41.245Z,57.16
2022-12-01T14:03:16.856Z,57.18
2022-12-01T14:05:55.070Z,56.86
2022-12-01T14:08:28.464Z,57.19
2022-12-01T14:10:57.436Z,56.95
2022-12-01T14:13:24.882Z,56.91
2022-12-01T14:15:57.236Z,56.80
2022-12-01T14:18:26.812Z,56.99
2022-12-01T14:20:53.521Z,56.65
2022-12-01T14:23:25.165Z,56.56
2022-12-01T14:26:04.185Z,56.68
2022-12-01T14:28:55.459Z,56.82
2022-12-01T14:31:23.816Z,56.92
2022-12-01T14:33:52.480Z,56.79
2022-12-01T14:36:25.162Z,56.73
2022-12-01T14:39:02.248Z,56.77
2022-12-01T14:41:36.331Z,56.82
2022-12-01T14:44:07.873Z,57.17
2022-12-01T14:46:49.413Z,56.78
2022-12-01T14:49:26.064Z,56.65
2022-12-01T14:52:03.213Z,56.88
2022-12-01T14:54:37.905Z,56.69
2022-12-01T14:57:06.291Z,56.65
2022-12-01T14:59:34.863Z,56.60
2022-12-01T15:02:09.089Z,56.78
2022-12-01T15:05:10.804Z,56.85
2022-12-01T15:07:39.427Z,56.67
2022-12-01T15:10:06.863Z,57.04
2022-12-01T15:12:33.608Z,56.88
2022-12-01T15:15:00.136Z,57.03
2022-12-01T15:17:37.716Z,56.96
2022-12-01T15:20:05.553Z,57.10
2022-12-01T15:22:33.918Z,56.95
2022-12-01T15:25:07.562Z,56.93
2022-12-01T15:27:34.057Z,57.51
2022-12-01T15:30:04.366Z,56.81
2022-12-01T15:32:32.745Z,57.00
2022-12-01T15:35:04.662Z,57.08
2022-12-01T15:37:43.663Z,56.94
2022-12-01T15:41:06.207Z,57.25
2022-12-01T15:43:12.777Z,57.09
2022-12-01T15:46:00.285Z,57.08
2022-12-01T15:48:36.789Z,57.28
2022-12-01T15:51:20.179Z,57.20
2022-12-01T15:53:59.019Z,57.07
2022-12-01T15:56:32.181Z,57.14
2022-12-01T15:59:13.995Z,56.72
2022-12-01T16:01:43.041Z,56.80
2022-12-01T16:04:20.233Z,57.09
2022-12-01T16:06:57.937Z,56.71
2022-12-01T16:09:41.051Z,56.77
2022-12-01T16:12:16.824Z,56.95
2022-12-01T16:14:49.848Z,56.94
2022-12-01T16:17:17.701Z,56.80
2022-12-01T16:19:45.453Z,56.73
2022-12-01T16:22:11.994Z,56.86
2022-12-01T16:24:54.100Z,56.64
2022-12-01T16:27:30.950Z,56.43
2022-12-01T16:30:06.333Z,56.72
2022-12-01T16:32:40.913Z,56.55
2022-12-01T16:35:24.603Z,56.55
2022-12-01T16:37:51.212Z,56.81
2022-12-01T16:40:17.892Z,56.75
2022-12-01T16:42:44.501Z,56.58
2022-12-01T16:45:15.492Z,56.65
2022-12-01T16:47:42.590Z,56.86
2022-12-01T16:50:19.954Z,56.61
2022-12-01T16:52:46.833Z,56.76
2022-12-01T16:55:48.743Z,56.80
2022-12-01T16:58:15.365Z,56.42
2022-12-01T17:00:41.868Z,56.79
2022-12-01T17:03:15.413Z,56.74
2022-12-01T17:05:42.316Z,56.77
2022-12-01T17:08:08.923Z,56.68
2022-12-01T17:10:40.350Z,56.89
2022-12-01T17:13:06.952Z,56.80
2022-12-01T17:15:33.559Z,56.96
2022-12-01T17:18:00.176Z,56.62
2022-12-01T17:20:26.819Z,56.24
2022-12-01T17:22:53.404Z,56.62
2022-12-01T17:25:20.032Z,56.42
2022-12-01T17:27:46.534Z,56.55
2022-12-01T17:30:13.221Z,56.52
2022-12-01T17:32:39.721Z,56.24
2022-12-01T17:35:06.617Z,56.41
2022-12-01T17:37:33.256Z,56.91
2022-12-01T17:39:59.745Z,56.98
2022-12-01T17:42:26.236Z,56.75
2022-12-01T17:44:52.991Z,56.78
2022-12-01T17:47:19.600Z,56.50
2022-12-01T17:49:46.161Z,56.60
2022-12-01T17:52:12.691Z,56.50
2022-12-01T17:54:39.369Z,56.21
2022-12-01T17:57:07.564Z,56.53
2022-12-01T17:59:35.024Z,56.34
2022-12-01T18:02:01.687Z,56.52
2022-12-01T18:04:28.378Z,56.32
2022-12-01T18:06:55.078Z,56.30
2022-12-01T18:09:21.901Z,56.05
2022-12-01T18:11:49.088Z,56.30
2022-12-01T18:14:17.733Z,56.31
2022-12-01T18:16:45.085Z,57.15
2022-12-01T18:19:12.110Z,57.17
2022-12-01T18:21:39.253Z,57.15
2022-12-01T18:24:08.788Z,57.00
2022-12-01T18:26:36.571Z,56.91
2022-12-01T18:29:13.974Z,56.54
2022-12-01T18:31:40.552Z,56.50
2022-12-01T18:34:07.941Z,56.21
2022-12-01T18:36:36.151Z,55.98
2022-12-01T18:39:05.220Z,56.12
2022-12-01T18:41:31.903Z,55.99
2022-12-01T18:43:58.649Z,56.05
2022-12-01T18:46:25.453Z,56.46
2022-12-01T18:48:59.361Z,56.21
2022-12-01T18:51:26.189Z,56.25
2022-12-01T18:54:00.346Z,56.80
2022-12-01T18:56:27.366Z,56.62
2022-12-01T18:58:57.999Z,56.45
2022-12-01T19:01:26.927Z,56.38
2022-12-01T19:03:57.873Z,56.43
2022-12-01T19:06:25.364Z,56.52
2022-12-01T19:08:52.814Z,56.20
2022-12-01T19:11:19.929Z,56.34
2022-12-01T19:13:46.645Z,56.64
2022-12-01T19:16:16.016Z,56.20
2022-12-01T19:18:43.029Z,56.47
2022-12-01T19:21:14.703Z,56.44
2022-12-01T19:23:41.548Z,56.20
2022-12-01T19:26:11.067Z,55.62
2022-12-01T19:28:37.944Z,56.30
2022-12-01T19:31:09.420Z,55.83
2022-12-01T19:33:36.051Z,55.49
2022-12-01T19:36:07.422Z,55.52
2022-12-01T19:38:33.919Z,55.67
2022-12-01T19:41:00.964Z,55.47
2022-12-01T19:43:27.706Z,55.97
2022-12-01T19:45:54.319Z,55.52
2022-12-01T19:48:21.043Z,55.76
2022-12-01T19:50:47.587Z,55.60
2022-12-01T19:53:14.085Z,55.92
2022-12-01T19:55:40.691Z,56.22
2022-12-01T19:58:07.176Z,56.70
2022-12-01T20:00:33.974Z,56.40
2022-12-01T20:03:00.937Z,56.71
2022-12-01T20:05:27.702Z,56.57
2022-12-01T20:07:54.355Z,56.58
2022-12-01T20:10:20.949Z,56.12
2022-12-01T20:12:47.745Z,56.18
2022-12-01T20:15:14.853Z,55.04
2022-12-01T20:17:41.436Z,55.13
2022-12-01T20:20:08.704Z,54.75
2022-12-01T20:22:35.997Z,54.73
2022-12-01T20:25:04.399Z,54.50
2022-12-01T20:27:30.959Z,53.85
2022-12-01T20:29:57.630Z,53.63
2022-12-01T20:32:24.380Z,53.36
2022-12-01T20:34:56.858Z,53.14
2022-12-01T20:37:23.356Z,53.26
2022-12-01T20:39:49.854Z,52.83
2022-12-01T20:42:19.285Z,52.86
2022-12-01T20:44:46.385Z,52.78
2022-12-01T20:47:14.514Z,52.65
2022-12-01T20:49:41.124Z,52.53
2022-12-01T20:52:09.109Z,52.45
2022-12-01T20:54:35.855Z,52.42
2022-12-01T20:57:03.072Z,52.43
2022-12-01T20:59:29.712Z,52.36
2022-12-01T21:01:56.410Z,52.36
2022-12-01T21:04:23.050Z,52.55
2022-12-01T21:06:50.033Z,52.73
2022-12-01T21:09:16.770Z,52.55
2022-12-01T21:12:09.618Z,52.56
2022-12-01T21:14:37.592Z,52.32
2022-12-01T21:17:15.137Z,52.16
2022-12-01T21:19:57.261Z,52.20
2022-12-01T21:22:24.774Z,52.11
2022-12-01T21:24:52.215Z,52.41
2022-12-01T21:27:18.976Z,52.33
2022-12-01T21:29:47.869Z,52.22
2022-12-01T21:32:29.528Z,52.12
2022-12-01T21:35:01.584Z,52.22
2022-12-01T21:37:28.156Z,52.16
2022-12-01T21:39:56.345Z,51.82
2022-12-01T21:42:30.725Z,51.89
2022-12-01T21:44:57.714Z,51.87
2022-12-01T21:47:26.917Z,52.07
2022-12-01T21:49:56.739Z,52.08
2022-12-01T21:52:29.852Z,52.05
2022-12-01T21:55:01.744Z,51.86
2022-12-01T21:57:37.389Z,52.21
2022-12-01T22:00:29.022Z,52.40
2022-12-01T22:03:24.623Z,51.67
2022-12-01T22:06:14.029Z,52.32
2022-12-01T22:08:41.234Z,52.07
2022-12-01T22:11:15.139Z,51.85
2022-12-01T22:13:59.348Z,51.74
2022-12-01T22:16:30.833Z,51.54
2022-12-01T22:18:59.752Z,51.77
2022-12-01T22:21:33.554Z,51.77
2022-12-01T22:24:08.936Z,51.67
2022-12-01T22:26:37.203Z,51.10
2022-12-01T22:29:32.277Z,51.51
2022-12-01T22:32:24.809Z,51.90
2022-12-01T22:34:54.003Z,51.62
2022-12-01T22:37:20.523Z,52.20
2022-12-01T22:39:47.440Z,52.37
2022-12-01T22:42:20.708Z,52.69
2022-12-01T22:44:47.575Z,52.77
2022-12-01T22:47:14.565Z,53.08
2022-12-01T22:49:42.035Z,53.28
2022-12-01T22:52:28.721Z,53.53
2022-12-01T22:54:55.329Z,53.88
2022-12-01T22:57:35.122Z,53.80
2022-12-01T23:00:14.027Z,54.20
2022-12-01T23:02:40.601Z,54.14
2022-12-01T23:05:15.148Z,54.33
2022-12-01T23:07:43.149Z,54.46
2022-12-01T23:10:36.000Z,54.38
2022-12-01T23:13:14.492Z,54.58
2022-12-01T23:15:44.653Z,54.70
2022-12-01T23:18:29.310Z,54.50
2022-12-01T23:21:01.954Z,55.18
2022-12-01T23:23:29.374Z,55.28
2022-12-01T23:25:56.550Z,55.67
2022-12-01T23:28:24.117Z,55.31
2022-12-01T23:30:55.477Z,55.58
2022-12-01T23:33:24.452Z,55.54
2022-12-01T23:35:54.854Z,55.64
2022-12-01T23:38:42.394Z,55.78
2022-12-01T23:41:33.633Z,55.82
2022-12-01T23:44:34.085Z,55.76
2022-12-01T23:47:00.651Z,55.82
2022-12-01T23:49:33.671Z,56.17
2022-12-01T23:52:01.371Z,56.19
2022-12-01T23:54:31.206Z,56.26
2022-12-01T23:57:01.489Z,56.08
2022-12-01T23:59:29.057Z,56.24
